sensor_id;sensor_type;location;lat;lon;timestamp;P1;durP1;ratioP1;P2;durP2;ratioP2
73421;SDS011;61637;47.760;-122.022;2022-10-16T00:00:01;170.7;;;107.9;;
73421;SDS011;61637;47.760;-122.022;2022-10-16T00:02:00;172.4;;;110.8;;
73421;SDS011;61637;47.760;-122.022;2022-10-16T00:04:02;178.1;;;112.9;;
73421;SDS011;61637;47.760;-122.022;2022-10-16T00:06:02;171.2;;;108.2;;
73421;SDS011;61637;47.760;-122.022;2022-10-16T00:08:00;182.7;;;115.6;;
73421;SDS011;61637;47.760;-122.022;2022-10-16T00:10:00;177.5;;;111.4;;
73421;SDS011;61637;47.760;-122.022;2022-10-16T00:12:01;181.1;;;115.1;;
73421;SDS011;61637;47.760;-122.022;2022-10-16T00:14:03;175.6;;;112.1;;
73421;SDS011;61637;47.760;-122.022;2022-10-16T00:16:02;183.9;;;113.6;;
73421;SDS011;61637;47.760;-122.022;2022-10-16T00:18:00;180.1;;;114.3;;
73421;SDS011;61637;47.760;-122.022;2022-10-16T00:20:01;182.3;;;117.0;;
73421;SDS011;61637;47.760;-122.022;2022-10-16T00:22:00;180.7;;;117.6;;
73421;SDS011;61637;47.760;-122.022;2022-10-16T00:24:04;180.9;;;113.9;;
73421;SDS011;61637;47.760;-122.022;2022-10-16T00:26:05;185.6;;;114.8;;
73421;SDS011;61637;47.760;-122.022;2022-10-16T00:28:01;185.7;;;118.1;;
73421;SDS011;61637;47.760;-122.022;2022-10-16T00:30:00;181.4;;;112.6;;
73421;SDS011;61637;47.760;-122.022;2022-10-16T00:32:00;179.7;;;114.7;;
73421;SDS011;61637;47.760;-122.022;2022-10-16T00:34:00;180.5;;;112.3;;
73421;SDS011;61637;47.760;-122.022;2022-10-16T00:36:02;183.5;;;115.9;;
73421;SDS011;61637;47.760;-122.022;2022-10-16T00:38:00;179.5;;;115.7;;
73421;SDS011;61637;47.760;-122.022;2022-10-16T00:40:00;186.6;;;117.0;;
73421;SDS011;61637;47.760;-122.022;2022-10-16T00:42:01;180.1;;;114.3;;
73421;SDS011;61637;47.760;-122.022;2022-10-16T00:44:02;183.8;;;114.7;;
73421;SDS011;61637;47.760;-122.022;2022-10-16T00:46:02;184.0;;;115.5;;
73421;SDS011;61637;47.760;-122.022;2022-10-16T00:48:00;183.8;;;117.3;;
73421;SDS011;61637;47.760;-122.022;2022-10-16T00:50:08;179.6;;;113.6;;
73421;SDS011;61637;47.760;-122.022;2022-10-16T00:52:01;180.9;;;117.0;;
73421;SDS011;61637;47.760;-122.022;2022-10-16T00:54:02;178.0;;;112.6;;
73421;SDS011;61637;47.760;-122.022;2022-10-16T00:56:02;181.0;;;113.5;;
73421;SDS011;61637;47.760;-122.022;2022-10-16T00:58:01;178.3;;;111.7;;
73421;SDS011;61637;47.760;-122.022;2022-10-16T01:00:03;179.0;;;114.3;;
73421;SDS011;61637;47.760;-122.022;2022-10-16T01:02:02;179.3;;;111.7;;
73421;SDS011;61637;47.760;-122.022;2022-10-16T01:04:00;181.4;;;114.4;;
73421;SDS011;61637;47.760;-122.022;2022-10-16T01:06:15;179.5;;;114.8;;
73421;SDS011;61637;47.760;-122.022;2022-10-16T01:08:04;180.0;;;112.6;;
73421;SDS011;61637;47.760;-122.022;2022-10-16T01:10:06;177.9;;;110.8;;
73421;SDS011;61637;47.760;-122.022;2022-10-16T01:12:09;173.9;;;110.3;;
73421;SDS011;61637;47.760;-122.022;2022-10-16T01:14:06;176.3;;;109.7;;
73421;SDS011;61637;47.760;-122.022;2022-10-16T01:16:05;171.2;;;106.9;;
73421;SDS011;61637;47.760;-122.022;2022-10-16T01:18:06;173.1;;;106.1;;
73421;SDS011;61637;47.760;-122.022;2022-10-16T01:20:07;173.1;;;106.4;;
73421;SDS011;61637;47.760;-122.022;2022-10-16T01:22:01;169.8;;;108.4;;
73421;SDS011;61637;47.760;-122.022;2022-10-16T01:24:07;170.4;;;106.0;;
73421;SDS011;61637;47.760;-122.022;2022-10-16T01:26:14;173.7;;;107.5;;
73421;SDS011;61637;47.760;-122.022;2022-10-16T01:28:02;167.9;;;105.6;;
73421;SDS011;61637;47.760;-122.022;2022-10-16T01:30:05;171.3;;;104.6;;
73421;SDS011;61637;47.760;-122.022;2022-10-16T01:32:15;167.2;;;104.7;;
73421;SDS011;61637;47.760;-122.022;2022-10-16T01:34:05;167.4;;;106.1;;
73421;SDS011;61637;47.760;-122.022;2022-10-16T01:36:06;165.0;;;104.0;;
73421;SDS011;61637;47.760;-122.022;2022-10-16T01:38:04;162.0;;;103.7;;
73421;SDS011;61637;47.760;-122.022;2022-10-16T01:40:04;164.9;;;101.9;;
73421;SDS011;61637;47.760;-122.022;2022-10-16T01:42:06;167.4;;;104.9;;
73421;SDS011;61637;47.760;-122.022;2022-10-16T01:44:03;167.2;;;104.1;;
73421;SDS011;61637;47.760;-122.022;2022-10-16T01:46:02;166.5;;;102.4;;
73421;SDS011;61637;47.760;-122.022;2022-10-16T01:48:02;163.8;;;101.7;;
73421;SDS011;61637;47.760;-122.022;2022-10-16T01:50:02;159.3;;;100.9;;
73421;SDS011;61637;47.760;-122.022;2022-10-16T01:52:05;158.5;;;99.6;;
73421;SDS011;61637;47.760;-122.022;2022-10-16T01:54:02;158.5;;;98.0;;
73421;SDS011;61637;47.760;-122.022;2022-10-16T01:56:03;156.6;;;97.8;;
73421;SDS011;61637;47.760;-122.022;2022-10-16T01:58:02;157.3;;;98.9;;
73421;SDS011;61637;47.760;-122.022;2022-10-16T02:00:04;159.2;;;98.6;;
73421;SDS011;61637;47.760;-122.022;2022-10-16T02:02:05;158.3;;;98.0;;
73421;SDS011;61637;47.760;-122.022;2022-10-16T02:04:04;159.0;;;94.8;;
73421;SDS011;61637;47.760;-122.022;2022-10-16T02:06:01;150.4;;;93.0;;
73421;SDS011;61637;47.760;-122.022;2022-10-16T02:08:00;161.1;;;97.3;;
73421;SDS011;61637;47.760;-122.022;2022-10-16T02:10:01;150.0;;;92.7;;
73421;SDS011;61637;47.760;-122.022;2022-10-16T02:12:06;142.5;;;87.8;;
73421;SDS011;61637;47.760;-122.022;2022-10-16T02:14:03;149.1;;;90.9;;
73421;SDS011;61637;47.760;-122.022;2022-10-16T02:16:00;145.0;;;89.3;;
73421;SDS011;61637;47.760;-122.022;2022-10-16T02:18:02;143.5;;;89.9;;
73421;SDS011;61637;47.760;-122.022;2022-10-16T02:20:02;141.6;;;87.0;;
73421;SDS011;61637;47.760;-122.022;2022-10-16T02:22:03;147.7;;;87.4;;
73421;SDS011;61637;47.760;-122.022;2022-10-16T02:24:05;141.4;;;86.0;;
73421;SDS011;61637;47.760;-122.022;2022-10-16T02:26:04;141.3;;;86.1;;
73421;SDS011;61637;47.760;-122.022;2022-10-16T02:28:03;133.6;;;84.9;;
73421;SDS011;61637;47.760;-122.022;2022-10-16T02:30:07;143.5;;;87.7;;
73421;SDS011;61637;47.760;-122.022;2022-10-16T02:32:04;137.0;;;85.2;;
73421;SDS011;61637;47.760;-122.022;2022-10-16T02:34:03;142.6;;;84.8;;
73421;SDS011;61637;47.760;-122.022;2022-10-16T02:36:01;141.2;;;86.5;;
73421;SDS011;61637;47.760;-122.022;2022-10-16T02:38:01;142.0;;;84.0;;
73421;SDS011;61637;47.760;-122.022;2022-10-16T02:40:01;139.1;;;84.8;;
73421;SDS011;61637;47.760;-122.022;2022-10-16T02:42:01;140.0;;;83.4;;
73421;SDS011;61637;47.760;-122.022;2022-10-16T02:44:01;135.7;;;83.1;;
73421;SDS011;61637;47.760;-122.022;2022-10-16T02:46:00;132.0;;;81.4;;
73421;SDS011;61637;47.760;-122.022;2022-10-16T02:48:01;136.5;;;83.6;;
73421;SDS011;61637;47.760;-122.022;2022-10-16T02:50:01;129.6;;;81.3;;
73421;SDS011;61637;47.760;-122.022;2022-10-16T02:52:01;131.0;;;81.3;;
73421;SDS011;61637;47.760;-122.022;2022-10-16T02:54:02;137.7;;;82.8;;
73421;SDS011;61637;47.760;-122.022;2022-10-16T02:56:00;135.1;;;82.8;;
73421;SDS011;61637;47.760;-122.022;2022-10-16T02:58:01;136.3;;;80.7;;
73421;SDS011;61637;47.760;-122.022;2022-10-16T03:00:00;130.0;;;82.0;;
73421;SDS011;61637;47.760;-122.022;2022-10-16T03:02:00;131.4;;;78.5;;
73421;SDS011;61637;47.760;-122.022;2022-10-16T03:04:00;135.7;;;79.6;;
73421;SDS011;61637;47.760;-122.022;2022-10-16T03:06:01;130.1;;;77.7;;
73421;SDS011;61637;47.760;-122.022;2022-10-16T03:08:01;131.8;;;78.9;;
73421;SDS011;61637;47.760;-122.022;2022-10-16T03:10:00;124.4;;;76.3;;
73421;SDS011;61637;47.760;-122.022;2022-10-16T03:12:01;128.8;;;75.4;;
73421;SDS011;61637;47.760;-122.022;2022-10-16T03:14:00;127.1;;;75.8;;
73421;SDS011;61637;47.760;-122.022;2022-10-16T03:16:00;129.4;;;74.7;;
73421;SDS011;61637;47.760;-122.022;2022-10-16T03:18:01;125.5;;;72.7;;
73421;SDS011;61637;47.760;-122.022;2022-10-16T03:20:00;122.1;;;73.6;;
73421;SDS011;61637;47.760;-122.022;2022-10-16T03:22:00;125.5;;;73.0;;
73421;SDS011;61637;47.760;-122.022;2022-10-16T03:24:01;116.6;;;71.6;;
73421;SDS011;61637;47.760;-122.022;2022-10-16T03:26:00;116.5;;;72.5;;
73421;SDS011;61637;47.760;-122.022;2022-10-16T03:28:00;114.3;;;70.9;;
73421;SDS011;61637;47.760;-122.022;2022-10-16T03:30:01;114.5;;;70.3;;
73421;SDS011;61637;47.760;-122.022;2022-10-16T03:32:00;113.9;;;70.3;;
73421;SDS011;61637;47.760;-122.022;2022-10-16T03:34:00;116.9;;;70.5;;
73421;SDS011;61637;47.760;-122.022;2022-10-16T03:36:01;124.8;;;70.8;;
73421;SDS011;61637;47.760;-122.022;2022-10-16T03:38:00;113.4;;;68.8;;
73421;SDS011;61637;47.760;-122.022;2022-10-16T03:40:01;120.3;;;72.3;;
73421;SDS011;61637;47.760;-122.022;2022-10-16T03:42:01;112.8;;;67.4;;
73421;SDS011;61637;47.760;-122.022;2022-10-16T03:44:01;114.9;;;68.5;;
73421;SDS011;61637;47.760;-122.022;2022-10-16T03:46:00;110.6;;;66.0;;
73421;SDS011;61637;47.760;-122.022;2022-10-16T03:48:01;108.3;;;66.9;;
73421;SDS011;61637;47.760;-122.022;2022-10-16T03:50:00;108.4;;;66.6;;
73421;SDS011;61637;47.760;-122.022;2022-10-16T03:52:00;111.9;;;64.7;;
73421;SDS011;61637;47.760;-122.022;2022-10-16T03:54:01;110.7;;;65.9;;
73421;SDS011;61637;47.760;-122.022;2022-10-16T03:56:00;108.1;;;64.6;;
73421;SDS011;61637;47.760;-122.022;2022-10-16T03:58:00;102.7;;;61.9;;
73421;SDS011;61637;47.760;-122.022;2022-10-16T04:00:01;106.7;;;62.0;;
73421;SDS011;61637;47.760;-122.022;2022-10-16T04:02:00;104.8;;;61.6;;
73421;SDS011;61637;47.760;-122.022;2022-10-16T04:04:00;102.7;;;60.8;;
73421;SDS011;61637;47.760;-122.022;2022-10-16T04:06:01;100.9;;;58.9;;
73421;SDS011;61637;47.760;-122.022;2022-10-16T04:08:01;98.8;;;60.3;;
73421;SDS011;61637;47.760;-122.022;2022-10-16T04:10:01;97.4;;;58.1;;
73421;SDS011;61637;47.760;-122.022;2022-10-16T04:12:01;100.3;;;59.4;;
73421;SDS011;61637;47.760;-122.022;2022-10-16T04:14:00;98.3;;;57.5;;
73421;SDS011;61637;47.760;-122.022;2022-10-16T04:16:00;98.1;;;58.1;;
73421;SDS011;61637;47.760;-122.022;2022-10-16T04:18:01;98.9;;;57.7;;
73421;SDS011;61637;47.760;-122.022;2022-10-16T04:20:01;98.9;;;57.7;;
73421;SDS011;61637;47.760;-122.022;2022-10-16T04:22:02;92.5;;;57.2;;
73421;SDS011;61637;47.760;-122.022;2022-10-16T04:24:01;93.6;;;56.3;;
73421;SDS011;61637;47.760;-122.022;2022-10-16T04:26:01;97.4;;;57.2;;
73421;SDS011;61637;47.760;-122.022;2022-10-16T04:28:00;92.4;;;55.9;;
73421;SDS011;61637;47.760;-122.022;2022-10-16T04:30:01;94.4;;;56.2;;
73421;SDS011;61637;47.760;-122.022;2022-10-16T04:32:00;97.6;;;57.3;;
73421;SDS011;61637;47.760;-122.022;2022-10-16T04:34:01;91.2;;;55.4;;
73421;SDS011;61637;47.760;-122.022;2022-10-16T04:36:02;94.0;;;55.7;;
73421;SDS011;61637;47.760;-122.022;2022-10-16T04:38:01;89.3;;;54.6;;
73421;SDS011;61637;47.760;-122.022;2022-10-16T04:40:01;91.6;;;53.9;;
73421;SDS011;61637;47.760;-122.022;2022-10-16T04:42:01;93.9;;;54.6;;
73421;SDS011;61637;47.760;-122.022;2022-10-16T04:44:00;90.7;;;54.5;;
73421;SDS011;61637;47.760;-122.022;2022-10-16T04:46:01;91.3;;;54.6;;
73421;SDS011;61637;47.760;-122.022;2022-10-16T04:48:01;88.2;;;54.4;;
73421;SDS011;61637;47.760;-122.022;2022-10-16T04:50:00;92.2;;;54.9;;
73421;SDS011;61637;47.760;-122.022;2022-10-16T04:52:01;95.9;;;55.2;;
73421;SDS011;61637;47.760;-122.022;2022-10-16T04:54:01;100.1;;;54.6;;
73421;SDS011;61637;47.760;-122.022;2022-10-16T04:56:00;92.0;;;53.6;;
73421;SDS011;61637;47.760;-122.022;2022-10-16T04:58:01;87.5;;;53.6;;
73421;SDS011;61637;47.760;-122.022;2022-10-16T05:00:01;84.0;;;50.1;;
73421;SDS011;61637;47.760;-122.022;2022-10-16T05:02:00;91.2;;;53.0;;
73421;SDS011;61637;47.760;-122.022;2022-10-16T05:04:00;83.4;;;48.6;;
73421;SDS011;61637;47.760;-122.022;2022-10-16T05:06:01;76.4;;;44.7;;
73421;SDS011;61637;47.760;-122.022;2022-10-16T05:08:01;79.3;;;48.7;;
73421;SDS011;61637;47.760;-122.022;2022-10-16T05:10:00;79.3;;;51.1;;
73421;SDS011;61637;47.760;-122.022;2022-10-16T05:12:01;unavailable;;;unavailable;;
73421;SDS011;61637;47.760;-122.022;2022-10-16T05:14:01;unavailable;;;unavailable;;
73421;SDS011;61637;47.760;-122.022;2022-10-16T05:16:00;77.1;;;46.8;;
73421;SDS011;61637;47.760;-122.022;2022-10-16T05:18:01;71.4;;;44.0;;
73421;SDS011;61637;47.760;-122.022;2022-10-16T05:20:00;79.8;;;47.4;;
73421;SDS011;61637;47.760;-122.022;2022-10-16T05:22:01;78.7;;;46.7;;
73421;SDS011;61637;47.760;-122.022;2022-10-16T05:24:01;79.7;;;47.6;;
73421;SDS011;61637;47.760;-122.022;2022-10-16T05:26:00;83.7;;;48.5;;
73421;SDS011;61637;47.760;-122.022;2022-10-16T05:28:01;79.5;;;49.8;;
73421;SDS011;61637;47.760;-122.022;2022-10-16T05:30:01;82.2;;;48.6;;
73421;SDS011;61637;47.760;-122.022;2022-10-16T05:32:00;69.2;;;43.4;;
73421;SDS011;61637;47.760;-122.022;2022-10-16T05:34:01;78.4;;;46.5;;
73421;SDS011;61637;47.760;-122.022;2022-10-16T05:36:01;63.9;;;38.3;;
73421;SDS011;61637;47.760;-122.022;2022-10-16T05:38:00;68.1;;;40.2;;
73421;SDS011;61637;47.760;-122.022;2022-10-16T05:40:00;66.1;;;38.9;;
73421;SDS011;61637;47.760;-122.022;2022-10-16T05:42:01;74.2;;;42.7;;
73421;SDS011;61637;47.760;-122.022;2022-10-16T05:44:04;63.5;;;36.9;;
73421;SDS011;61637;47.760;-122.022;2022-10-16T05:46:03;59.4;;;35.9;;
73421;SDS011;61637;47.760;-122.022;2022-10-16T05:48:01;69.6;;;39.3;;
73421;SDS011;61637;47.760;-122.022;2022-10-16T05:50:00;59.2;;;34.9;;
73421;SDS011;61637;47.760;-122.022;2022-10-16T05:52:00;62.8;;;36.2;;
73421;SDS011;61637;47.760;-122.022;2022-10-16T05:54:01;56.5;;;34.8;;
73421;SDS011;61637;47.760;-122.022;2022-10-16T05:56:02;62.7;;;35.5;;
73421;SDS011;61637;47.760;-122.022;2022-10-16T05:58:00;56.3;;;32.6;;
73421;SDS011;61637;47.760;-122.022;2022-10-16T06:00:00;54.5;;;33.1;;
73421;SDS011;61637;47.760;-122.022;2022-10-16T06:02:01;60.5;;;34.5;;
73421;SDS011;61637;47.760;-122.022;2022-10-16T06:04:01;53.5;;;32.1;;
73421;SDS011;61637;47.760;-122.022;2022-10-16T06:06:08;60.6;;;33.5;;
73421;SDS011;61637;47.760;-122.022;2022-10-16T06:08:01;54.5;;;33.1;;
73421;SDS011;61637;47.760;-122.022;2022-10-16T06:10:01;55.3;;;34.0;;
73421;SDS011;61637;47.760;-122.022;2022-10-16T06:12:01;56.5;;;35.0;;
73421;SDS011;61637;47.760;-122.022;2022-10-16T06:14:02;57.7;;;35.3;;
73421;SDS011;61637;47.760;-122.022;2022-10-16T06:16:01;59.7;;;35.8;;
73421;SDS011;61637;47.760;-122.022;2022-10-16T06:18:01;60.4;;;35.8;;
73421;SDS011;61637;47.760;-122.022;2022-10-16T06:20:00;55.3;;;33.6;;
73421;SDS011;61637;47.760;-122.022;2022-10-16T06:22:01;52.9;;;32.4;;
73421;SDS011;61637;47.760;-122.022;2022-10-16T06:24:01;49.9;;;30.6;;
73421;SDS011;61637;47.760;-122.022;2022-10-16T06:26:04;48.1;;;30.2;;
73421;SDS011;61637;47.760;-122.022;2022-10-16T06:28:00;46.3;;;26.1;;
73421;SDS011;61637;47.760;-122.022;2022-10-16T06:30:01;43.1;;;27.4;;
73421;SDS011;61637;47.760;-122.022;2022-10-16T06:32:00;44.0;;;27.6;;
73421;SDS011;61637;47.760;-122.022;2022-10-16T06:34:01;43.8;;;26.1;;
73421;SDS011;61637;47.760;-122.022;2022-10-16T06:36:02;43.1;;;26.4;;
73421;SDS011;61637;47.760;-122.022;2022-10-16T06:38:00;49.6;;;28.5;;
73421;SDS011;61637;47.760;-122.022;2022-10-16T06:40:00;47.0;;;28.3;;
73421;SDS011;61637;47.760;-122.022;2022-10-16T06:42:01;50.1;;;28.1;;
73421;SDS011;61637;47.760;-122.022;2022-10-16T06:44:00;47.1;;;28.1;;
73421;SDS011;61637;47.760;-122.022;2022-10-16T06:46:02;48.7;;;28.6;;
73421;SDS011;61637;47.760;-122.022;2022-10-16T06:48:00;48.5;;;28.4;;
73421;SDS011;61637;47.760;-122.022;2022-10-16T06:50:00;43.9;;;27.5;;
73421;SDS011;61637;47.760;-122.022;2022-10-16T06:52:00;47.5;;;27.7;;
73421;SDS011;61637;47.760;-122.022;2022-10-16T06:54:01;44.2;;;27.3;;
73421;SDS011;61637;47.760;-122.022;2022-10-16T06:56:07;47.8;;;28.4;;
73421;SDS011;61637;47.760;-122.022;2022-10-16T06:58:00;43.8;;;26.4;;
73421;SDS011;61637;47.760;-122.022;2022-10-16T07:00:00;44.7;;;26.7;;
73421;SDS011;61637;47.760;-122.022;2022-10-16T07:02:00;42.0;;;24.5;;
73421;SDS011;61637;47.760;-122.022;2022-10-16T07:04:01;42.2;;;25.0;;
73421;SDS011;61637;47.760;-122.022;2022-10-16T07:06:03;45.2;;;26.5;;
73421;SDS011;61637;47.760;-122.022;2022-10-16T07:08:00;41.0;;;26.1;;
73421;SDS011;61637;47.760;-122.022;2022-10-16T07:10:00;44.7;;;25.2;;
73421;SDS011;61637;47.760;-122.022;2022-10-16T07:12:00;42.7;;;25.7;;
73421;SDS011;61637;47.760;-122.022;2022-10-16T07:14:00;45.7;;;27.1;;
73421;SDS011;61637;47.760;-122.022;2022-10-16T07:16:04;44.6;;;26.7;;
73421;SDS011;61637;47.760;-122.022;2022-10-16T07:18:01;58.3;;;28.2;;
73421;SDS011;61637;47.760;-122.022;2022-10-16T07:20:00;46.6;;;27.9;;
73421;SDS011;61637;47.760;-122.022;2022-10-16T07:22:01;44.1;;;26.4;;
73421;SDS011;61637;47.760;-122.022;2022-10-16T07:24:02;45.1;;;26.8;;
73421;SDS011;61637;47.760;-122.022;2022-10-16T07:26:00;44.2;;;27.0;;
73421;SDS011;61637;47.760;-122.022;2022-10-16T07:28:01;45.4;;;27.0;;
73421;SDS011;61637;47.760;-122.022;2022-10-16T07:30:01;49.2;;;27.5;;
73421;SDS011;61637;47.760;-122.022;2022-10-16T07:32:01;46.9;;;26.9;;
73421;SDS011;61637;47.760;-122.022;2022-10-16T07:34:00;47.0;;;27.7;;
73421;SDS011;61637;47.760;-122.022;2022-10-16T07:36:01;48.4;;;28.9;;
73421;SDS011;61637;47.760;-122.022;2022-10-16T07:38:00;48.9;;;29.7;;
73421;SDS011;61637;47.760;-122.022;2022-10-16T07:40:00;53.8;;;30.1;;
73421;SDS011;61637;47.760;-122.022;2022-10-16T07:42:01;48.6;;;29.0;;
73421;SDS011;61637;47.760;-122.022;2022-10-16T07:44:00;53.3;;;29.1;;
73421;SDS011;61637;47.760;-122.022;2022-10-16T07:46:01;50.6;;;29.8;;
73421;SDS011;61637;47.760;-122.022;2022-10-16T07:48:00;49.1;;;29.0;;
73421;SDS011;61637;47.760;-122.022;2022-10-16T07:50:00;52.6;;;29.8;;
73421;SDS011;61637;47.760;-122.022;2022-10-16T07:52:00;49.8;;;29.8;;
73421;SDS011;61637;47.760;-122.022;2022-10-16T07:54:01;49.1;;;29.6;;
73421;SDS011;61637;47.760;-122.022;2022-10-16T07:56:03;51.6;;;29.9;;
73421;SDS011;61637;47.760;-122.022;2022-10-16T07:58:00;51.4;;;29.3;;
73421;SDS011;61637;47.760;-122.022;2022-10-16T08:00:00;50.2;;;28.4;;
73421;SDS011;61637;47.760;-122.022;2022-10-16T08:02:00;47.6;;;27.6;;
73421;SDS011;61637;47.760;-122.022;2022-10-16T08:04:00;49.0;;;27.8;;
73421;SDS011;61637;47.760;-122.022;2022-10-16T08:06:02;49.7;;;28.3;;
73421;SDS011;61637;47.760;-122.022;2022-10-16T08:08:01;46.7;;;27.1;;
73421;SDS011;61637;47.760;-122.022;2022-10-16T08:10:00;50.8;;;28.3;;
73421;SDS011;61637;47.760;-122.022;2022-10-16T08:12:01;48.8;;;27.2;;
73421;SDS011;61637;47.760;-122.022;2022-10-16T08:14:01;48.4;;;26.8;;
73421;SDS011;61637;47.760;-122.022;2022-10-16T08:16:02;51.5;;;27.1;;
73421;SDS011;61637;47.760;-122.022;2022-10-16T08:18:03;47.6;;;26.9;;
73421;SDS011;61637;47.760;-122.022;2022-10-16T08:20:01;45.3;;;26.5;;
73421;SDS011;61637;47.760;-122.022;2022-10-16T08:22:00;43.5;;;25.4;;
73421;SDS011;61637;47.760;-122.022;2022-10-16T08:24:01;42.2;;;25.2;;
73421;SDS011;61637;47.760;-122.022;2022-10-16T08:26:04;42.4;;;24.9;;
73421;SDS011;61637;47.760;-122.022;2022-10-16T08:28:03;45.8;;;25.0;;
73421;SDS011;61637;47.760;-122.022;2022-10-16T08:30:01;39.1;;;23.5;;
73421;SDS011;61637;47.760;-122.022;2022-10-16T08:32:00;40.4;;;23.4;;
73421;SDS011;61637;47.760;-122.022;2022-10-16T08:34:00;40.6;;;23.2;;
73421;SDS011;61637;47.760;-122.022;2022-10-16T08:36:02;40.1;;;22.6;;
73421;SDS011;61637;47.760;-122.022;2022-10-16T08:38:02;38.2;;;22.8;;
73421;SDS011;61637;47.760;-122.022;2022-10-16T08:40:01;39.9;;;22.8;;
73421;SDS011;61637;47.760;-122.022;2022-10-16T08:42:09;39.0;;;22.7;;
73421;SDS011;61637;47.760;-122.022;2022-10-16T08:44:18;40.1;;;22.7;;
73421;SDS011;61637;47.760;-122.022;2022-10-16T08:46:13;39.7;;;21.3;;
73421;SDS011;61637;47.760;-122.022;2022-10-16T08:48:12;37.5;;;20.7;;
73421;SDS011;61637;47.760;-122.022;2022-10-16T08:50:09;36.0;;;20.7;;
73421;SDS011;61637;47.760;-122.022;2022-10-16T08:52:00;37.1;;;20.5;;
73421;SDS011;61637;47.760;-122.022;2022-10-16T08:54:03;40.6;;;22.1;;
73421;SDS011;61637;47.760;-122.022;2022-10-16T08:56:01;36.1;;;21.2;;
73421;SDS011;61637;47.760;-122.022;2022-10-16T08:58:00;35.8;;;20.7;;
73421;SDS011;61637;47.760;-122.022;2022-10-16T09:00:12;34.3;;;20.9;;
73421;SDS011;61637;47.760;-122.022;2022-10-16T09:02:00;35.5;;;20.5;;
73421;SDS011;61637;47.760;-122.022;2022-10-16T09:04:20;35.9;;;21.2;;
73421;SDS011;61637;47.760;-122.022;2022-10-16T09:06:13;36.7;;;21.1;;
73421;SDS011;61637;47.760;-122.022;2022-10-16T09:08:08;36.0;;;21.1;;
73421;SDS011;61637;47.760;-122.022;2022-10-16T09:10:10;38.8;;;20.8;;
73421;SDS011;61637;47.760;-122.022;2022-10-16T09:12:05;37.2;;;21.1;;
73421;SDS011;61637;47.760;-122.022;2022-10-16T09:14:11;38.4;;;20.8;;
73421;SDS011;61637;47.760;-122.022;2022-10-16T09:16:10;34.7;;;19.9;;
73421;SDS011;61637;47.760;-122.022;2022-10-16T09:18:09;33.4;;;20.1;;
73421;SDS011;61637;47.760;-122.022;2022-10-16T09:20:10;33.4;;;20.0;;
73421;SDS011;61637;47.760;-122.022;2022-10-16T09:22:08;33.4;;;20.0;;
73421;SDS011;61637;47.760;-122.022;2022-10-16T09:24:09;33.9;;;19.9;;
73421;SDS011;61637;47.760;-122.022;2022-10-16T09:26:02;33.9;;;19.9;;
73421;SDS011;61637;47.760;-122.022;2022-10-16T09:28:01;36.9;;;19.9;;
73421;SDS011;61637;47.760;-122.022;2022-10-16T09:30:00;35.4;;;20.1;;
73421;SDS011;61637;47.760;-122.022;2022-10-16T09:32:11;37.1;;;19.8;;
73421;SDS011;61637;47.760;-122.022;2022-10-16T09:34:03;32.0;;;18.3;;
73421;SDS011;61637;47.760;-122.022;2022-10-16T09:36:04;31.0;;;18.8;;
73421;SDS011;61637;47.760;-122.022;2022-10-16T09:38:00;34.0;;;17.9;;
73421;SDS011;61637;47.760;-122.022;2022-10-16T09:40:01;30.9;;;17.8;;
73421;SDS011;61637;47.760;-122.022;2022-10-16T09:42:00;32.6;;;18.1;;
73421;SDS011;61637;47.760;-122.022;2022-10-16T09:44:01;32.6;;;18.2;;
73421;SDS011;61637;47.760;-122.022;2022-10-16T09:46:03;30.2;;;17.1;;
73421;SDS011;61637;47.760;-122.022;2022-10-16T09:48:11;31.9;;;18.5;;
73421;SDS011;61637;47.760;-122.022;2022-10-16T09:50:03;33.8;;;17.3;;
73421;SDS011;61637;47.760;-122.022;2022-10-16T09:52:04;32.5;;;18.1;;
73421;SDS011;61637;47.760;-122.022;2022-10-16T09:54:11;37.0;;;18.5;;
73421;SDS011;61637;47.760;-122.022;2022-10-16T09:56:01;29.5;;;17.0;;
73421;SDS011;61637;47.760;-122.022;2022-10-16T09:58:00;30.0;;;17.1;;
73421;SDS011;61637;47.760;-122.022;2022-10-16T10:00:08;31.0;;;17.0;;
73421;SDS011;61637;47.760;-122.022;2022-10-16T10:02:04;29.3;;;16.9;;
73421;SDS011;61637;47.760;-122.022;2022-10-16T10:04:01;31.3;;;17.4;;
73421;SDS011;61637;47.760;-122.022;2022-10-16T10:06:15;30.0;;;16.9;;
73421;SDS011;61637;47.760;-122.022;2022-10-16T10:08:02;30.3;;;17.6;;
73421;SDS011;61637;47.760;-122.022;2022-10-16T10:10:03;31.7;;;17.3;;
73421;SDS011;61637;47.760;-122.022;2022-10-16T10:12:02;33.1;;;17.4;;
73421;SDS011;61637;47.760;-122.022;2022-10-16T10:14:04;31.6;;;17.3;;
73421;SDS011;61637;47.760;-122.022;2022-10-16T10:16:01;28.8;;;17.0;;
73421;SDS011;61637;47.760;-122.022;2022-10-16T10:18:00;30.5;;;17.3;;
73421;SDS011;61637;47.760;-122.022;2022-10-16T10:20:15;29.6;;;16.7;;
73421;SDS011;61637;47.760;-122.022;2022-10-16T10:22:00;31.1;;;16.5;;
73421;SDS011;61637;47.760;-122.022;2022-10-16T10:24:00;31.1;;;16.5;;
73421;SDS011;61637;47.760;-122.022;2022-10-16T10:26:07;33.5;;;16.8;;
73421;SDS011;61637;47.760;-122.022;2022-10-16T10:28:15;30.1;;;16.4;;
73421;SDS011;61637;47.760;-122.022;2022-10-16T10:30:07;29.6;;;16.4;;
73421;SDS011;61637;47.760;-122.022;2022-10-16T10:32:08;30.6;;;16.6;;
73421;SDS011;61637;47.760;-122.022;2022-10-16T10:34:16;30.5;;;16.7;;
73421;SDS011;61637;47.760;-122.022;2022-10-16T10:36:07;28.1;;;16.3;;
73421;SDS011;61637;47.760;-122.022;2022-10-16T10:38:11;25.9;;;15.7;;
73421;SDS011;61637;47.760;-122.022;2022-10-16T10:40:11;29.4;;;17.1;;
73421;SDS011;61637;47.760;-122.022;2022-10-16T10:42:10;28.0;;;16.7;;
73421;SDS011;61637;47.760;-122.022;2022-10-16T10:44:07;27.2;;;16.1;;
73421;SDS011;61637;47.760;-122.022;2022-10-16T10:46:04;27.3;;;14.7;;
73421;SDS011;61637;47.760;-122.022;2022-10-16T10:48:17;32.4;;;15.6;;
73421;SDS011;61637;47.760;-122.022;2022-10-16T10:50:08;30.7;;;16.5;;
73421;SDS011;61637;47.760;-122.022;2022-10-16T10:52:16;30.6;;;16.4;;
73421;SDS011;61637;47.760;-122.022;2022-10-16T10:54:13;28.8;;;16.6;;
73421;SDS011;61637;47.760;-122.022;2022-10-16T10:56:06;28.4;;;16.5;;
73421;SDS011;61637;47.760;-122.022;2022-10-16T10:58:06;29.6;;;16.4;;
73421;SDS011;61637;47.760;-122.022;2022-10-16T11:00:05;28.3;;;15.8;;
73421;SDS011;61637;47.760;-122.022;2022-10-16T11:02:06;27.6;;;15.3;;
73421;SDS011;61637;47.760;-122.022;2022-10-16T11:04:16;29.6;;;15.9;;
73421;SDS011;61637;47.760;-122.022;2022-10-16T11:06:05;30.4;;;16.4;;
73421;SDS011;61637;47.760;-122.022;2022-10-16T11:08:04;27.2;;;15.9;;
73421;SDS011;61637;47.760;-122.022;2022-10-16T11:10:05;26.5;;;15.4;;
73421;SDS011;61637;47.760;-122.022;2022-10-16T11:12:06;28.6;;;16.4;;
73421;SDS011;61637;47.760;-122.022;2022-10-16T11:14:04;27.8;;;15.9;;
73421;SDS011;61637;47.760;-122.022;2022-10-16T11:16:12;27.7;;;15.4;;
73421;SDS011;61637;47.760;-122.022;2022-10-16T11:18:06;25.7;;;15.1;;
73421;SDS011;61637;47.760;-122.022;2022-10-16T11:20:11;22.8;;;13.5;;
73421;SDS011;61637;47.760;-122.022;2022-10-16T11:22:06;22.9;;;12.8;;
73421;SDS011;61637;47.760;-122.022;2022-10-16T11:24:06;20.9;;;12.1;;